sensor_id;sensor_type;location;lat;lon;timestamp;temperature;humidity
17152;DHT22;8691;50.828;4.700;2022-12-29T00:01:38;11.90;99.90
17152;DHT22;8691;50.828;4.700;2022-12-29T00:04:05;11.90;99.90
17152;DHT22;8691;50.828;4.700;2022-12-29T00:06:31;11.90;99.90
17152;DHT22;8691;50.828;4.700;2022-12-29T00:08:58;12.00;99.90
17152;DHT22;8691;50.828;4.700;2022-12-29T00:11:26;12.00;99.90
17152;DHT22;8691;50.828;4.700;2022-12-29T00:13:52;11.90;99.90
17152;DHT22;8691;50.828;4.700;2022-12-29T00:16:37;12.00;99.90
17152;DHT22;8691;50.828;4.700;2022-12-29T00:19:04;12.00;99.90
17152;DHT22;8691;50.828;4.700;2022-12-29T00:21:30;11.90;99.90
17152;DHT22;8691;50.828;4.700;2022-12-29T00:24:17;11.80;99.90
17152;DHT22;8691;50.828;4.700;2022-12-29T00:29:47;11.80;99.90
17152;DHT22;8691;50.828;4.700;2022-12-29T00:32:32;11.80;99.90
17152;DHT22;8691;50.828;4.700;2022-12-29T00:37:49;11.80;99.90
17152;DHT22;8691;50.828;4.700;2022-12-29T00:40:37;11.80;99.90
17152;DHT22;8691;50.828;4.700;2022-12-29T00:43:22;11.80;99.90
17152;DHT22;8691;50.828;4.700;2022-12-29T00:46:07;11.80;99.90
17152;DHT22;8691;50.828;4.700;2022-12-29T00:48:33;11.80;99.90
17152;DHT22;8691;50.828;4.700;2022-12-29T00:51:18;11.80;99.90
17152;DHT22;8691;50.828;4.700;2022-12-29T00:53:45;11.70;99.90
17152;DHT22;8691;50.828;4.700;2022-12-29T00:56:12;11.80;99.90
17152;DHT22;8691;50.828;4.700;2022-12-29T00:58:42;11.90;99.90
17152;DHT22;8691;50.828;4.700;2022-12-29T01:01:06;11.90;99.90
17152;DHT22;8691;50.828;4.700;2022-12-29T01:03:33;11.90;99.90
17152;DHT22;8691;50.828;4.700;2022-12-29T01:06:02;12.00;99.90
17152;DHT22;8691;50.828;4.700;2022-12-29T01:08:29;11.90;99.90
17152;DHT22;8691;50.828;4.700;2022-12-29T01:11:02;11.90;99.90
17152;DHT22;8691;50.828;4.700;2022-12-29T01:13:28;12.00;99.90
17152;DHT22;8691;50.828;4.700;2022-12-29T01:15:55;11.90;99.90
17152;DHT22;8691;50.828;4.700;2022-12-29T01:18:22;11.80;99.90
17152;DHT22;8691;50.828;4.700;2022-12-29T01:20:49;11.80;99.90
17152;DHT22;8691;50.828;4.700;2022-12-29T01:23:15;11.80;99.90
17152;DHT22;8691;50.828;4.700;2022-12-29T01:25:42;11.90;99.90
17152;DHT22;8691;50.828;4.700;2022-12-29T01:28:09;11.90;99.90
17152;DHT22;8691;50.828;4.700;2022-12-29T01:30:39;11.90;99.90
17152;DHT22;8691;50.828;4.700;2022-12-29T01:33:03;11.90;99.90
17152;DHT22;8691;50.828;4.700;2022-12-29T01:35:30;11.70;99.90
17152;DHT22;8691;50.828;4.700;2022-12-29T01:37:57;11.70;99.90
17152;DHT22;8691;50.828;4.700;2022-12-29T01:40:24;11.50;99.90
17152;DHT22;8691;50.828;4.700;2022-12-29T01:42:51;11.60;99.90
17152;DHT22;8691;50.828;4.700;2022-12-29T01:45:18;11.50;99.90
17152;DHT22;8691;50.828;4.700;2022-12-29T01:47:49;11.40;99.90
17152;DHT22;8691;50.828;4.700;2022-12-29T01:50:16;11.40;99.90
17152;DHT22;8691;50.828;4.700;2022-12-29T01:52:54;11.30;99.90
17152;DHT22;8691;50.828;4.700;2022-12-29T01:55:11;11.30;99.90
17152;DHT22;8691;50.828;4.700;2022-12-29T01:57:39;11.20;99.90
17152;DHT22;8691;50.828;4.700;2022-12-29T02:00:06;11.10;99.90
17152;DHT22;8691;50.828;4.700;2022-12-29T02:02:32;11.10;99.90
17152;DHT22;8691;50.828;4.700;2022-12-29T02:04:59;11.00;99.90
17152;DHT22;8691;50.828;4.700;2022-12-29T02:07:26;11.00;99.90
17152;DHT22;8691;50.828;4.700;2022-12-29T02:09:52;11.00;99.90
17152;DHT22;8691;50.828;4.700;2022-12-29T02:12:19;10.90;99.90
17152;DHT22;8691;50.828;4.700;2022-12-29T02:14:46;11.00;99.90
17152;DHT22;8691;50.828;4.700;2022-12-29T02:23:05;11.10;99.90
17152;DHT22;8691;50.828;4.700;2022-12-29T02:38:53;11.40;99.90
17152;DHT22;8691;50.828;4.700;2022-12-29T02:41:27;11.30;99.90
17152;DHT22;8691;50.828;4.700;2022-12-29T02:43:54;11.30;99.90
17152;DHT22;8691;50.828;4.700;2022-12-29T02:46:41;11.30;99.90
17152;DHT22;8691;50.828;4.700;2022-12-29T02:49:33;11.20;99.90
17152;DHT22;8691;50.828;4.700;2022-12-29T02:52:01;11.10;99.90
17152;DHT22;8691;50.828;4.700;2022-12-29T02:54:27;11.10;99.90
17152;DHT22;8691;50.828;4.700;2022-12-29T02:59:42;11.00;99.90
17152;DHT22;8691;50.828;4.700;2022-12-29T03:05:15;11.10;99.90
17152;DHT22;8691;50.828;4.700;2022-12-29T03:07:51;11.00;99.90
17152;DHT22;8691;50.828;4.700;2022-12-29T03:10:25;11.00;99.90
17152;DHT22;8691;50.828;4.700;2022-12-29T03:15:53;11.10;99.90
17152;DHT22;8691;50.828;4.700;2022-12-29T03:18:37;11.00;99.90
17152;DHT22;8691;50.828;4.700;2022-12-29T03:20:54;11.10;99.90
17152;DHT22;8691;50.828;4.700;2022-12-29T03:23:19;11.00;99.90
17152;DHT22;8691;50.828;4.700;2022-12-29T03:25:51;11.10;99.90
17152;DHT22;8691;50.828;4.700;2022-12-29T03:28:23;11.10;99.90
17152;DHT22;8691;50.828;4.700;2022-12-29T03:30:50;11.10;99.90
17152;DHT22;8691;50.828;4.700;2022-12-29T03:33:22;11.10;99.90
17152;DHT22;8691;50.828;4.700;2022-12-29T03:35:49;11.10;99.90
17152;DHT22;8691;50.828;4.700;2022-12-29T03:38:33;11.00;99.90
17152;DHT22;8691;50.828;4.700;2022-12-29T03:40:58;11.00;99.90
17152;DHT22;8691;50.828;4.700;2022-12-29T03:43:22;11.10;99.90
17152;DHT22;8691;50.828;4.700;2022-12-29T03:45:49;11.00;99.90
17152;DHT22;8691;50.828;4.700;2022-12-29T03:48:16;11.00;99.90
17152;DHT22;8691;50.828;4.700;2022-12-29T03:50:43;11.00;99.90
17152;DHT22;8691;50.828;4.700;2022-12-29T03:53:09;11.00;99.90
17152;DHT22;8691;50.828;4.700;2022-12-29T03:55:36;10.90;99.90
17152;DHT22;8691;50.828;4.700;2022-12-29T03:58:03;10.90;99.90
17152;DHT22;8691;50.828;4.700;2022-12-29T04:00:30;10.70;99.90
17152;DHT22;8691;50.828;4.700;2022-12-29T04:02:57;10.70;99.90
17152;DHT22;8691;50.828;4.700;2022-12-29T04:05:24;10.60;99.90
17152;DHT22;8691;50.828;4.700;2022-12-29T04:07:50;10.70;99.90
17152;DHT22;8691;50.828;4.700;2022-12-29T04:10:17;10.70;99.90
17152;DHT22;8691;50.828;4.700;2022-12-29T04:12:47;10.70;99.90
17152;DHT22;8691;50.828;4.700;2022-12-29T04:15:11;10.70;99.90
17152;DHT22;8691;50.828;4.700;2022-12-29T04:17:38;10.60;99.90
17152;DHT22;8691;50.828;4.700;2022-12-29T04:20:06;10.50;99.90
17152;DHT22;8691;50.828;4.700;2022-12-29T04:22:57;10.50;99.90
17152;DHT22;8691;50.828;4.700;2022-12-29T04:25:17;10.40;99.90
17152;DHT22;8691;50.828;4.700;2022-12-29T04:27:45;10.20;99.90
17152;DHT22;8691;50.828;4.700;2022-12-29T04:30:11;10.20;99.90
17152;DHT22;8691;50.828;4.700;2022-12-29T04:32:38;10.10;99.90
17152;DHT22;8691;50.828;4.700;2022-12-29T04:35:05;10.20;99.90
17152;DHT22;8691;50.828;4.700;2022-12-29T04:37:32;10.20;99.90
17152;DHT22;8691;50.828;4.700;2022-12-29T04:40:02;10.30;99.90
17152;DHT22;8691;50.828;4.700;2022-12-29T04:42:29;10.20;99.90
17152;DHT22;8691;50.828;4.700;2022-12-29T04:44:56;10.20;99.90
17152;DHT22;8691;50.828;4.700;2022-12-29T04:47:23;10.30;99.90
17152;DHT22;8691;50.828;4.700;2022-12-29T04:49:50;10.30;99.90
17152;DHT22;8691;50.828;4.700;2022-12-29T04:52:17;10.30;99.90
17152;DHT22;8691;50.828;4.700;2022-12-29T04:54:45;10.50;99.90
17152;DHT22;8691;50.828;4.700;2022-12-29T04:57:12;10.40;99.90
17152;DHT22;8691;50.828;4.700;2022-12-29T04:59:39;10.60;99.90
17152;DHT22;8691;50.828;4.700;2022-12-29T05:02:06;10.60;99.90
17152;DHT22;8691;50.828;4.700;2022-12-29T05:04:33;10.70;99.90
17152;DHT22;8691;50.828;4.700;2022-12-29T05:07:01;10.80;99.90
17152;DHT22;8691;50.828;4.700;2022-12-29T05:09:29;10.90;99.90
17152;DHT22;8691;50.828;4.700;2022-12-29T05:11:57;11.00;99.90
17152;DHT22;8691;50.828;4.700;2022-12-29T05:14:23;11.00;99.90
17152;DHT22;8691;50.828;4.700;2022-12-29T05:16:50;11.00;99.90
17152;DHT22;8691;50.828;4.700;2022-12-29T05:19:17;11.00;99.90
17152;DHT22;8691;50.828;4.700;2022-12-29T05:21:44;11.00;99.90
17152;DHT22;8691;50.828;4.700;2022-12-29T05:24:12;11.10;99.90
17152;DHT22;8691;50.828;4.700;2022-12-29T05:26:39;11.10;99.90
17152;DHT22;8691;50.828;4.700;2022-12-29T05:29:06;11.00;99.90
17152;DHT22;8691;50.828;4.700;2022-12-29T05:31:33;11.00;99.90
17152;DHT22;8691;50.828;4.700;2022-12-29T05:34:00;10.90;99.90
17152;DHT22;8691;50.828;4.700;2022-12-29T05:36:27;10.90;99.90
17152;DHT22;8691;50.828;4.700;2022-12-29T05:38:53;10.80;99.90
17152;DHT22;8691;50.828;4.700;2022-12-29T05:41:20;10.80;99.90
17152;DHT22;8691;50.828;4.700;2022-12-29T05:43:47;10.80;99.90
17152;DHT22;8691;50.828;4.700;2022-12-29T05:46:15;11.00;99.90
17152;DHT22;8691;50.828;4.700;2022-12-29T05:48:42;11.00;99.90
17152;DHT22;8691;50.828;4.700;2022-12-29T05:51:09;10.90;99.90
17152;DHT22;8691;50.828;4.700;2022-12-29T05:53:35;11.00;99.90
17152;DHT22;8691;50.828;4.700;2022-12-29T05:56:03;11.10;99.90
17152;DHT22;8691;50.828;4.700;2022-12-29T05:58:29;11.00;99.90
17152;DHT22;8691;50.828;4.700;2022-12-29T06:00:56;11.00;99.90
17152;DHT22;8691;50.828;4.700;2022-12-29T06:03:23;10.90;99.90
17152;DHT22;8691;50.828;4.700;2022-12-29T06:05:50;11.00;99.90
17152;DHT22;8691;50.828;4.700;2022-12-29T06:08:17;10.90;99.90
17152;DHT22;8691;50.828;4.700;2022-12-29T06:10:44;10.90;99.90
17152;DHT22;8691;50.828;4.700;2022-12-29T06:13:11;10.70;99.90
17152;DHT22;8691;50.828;4.700;2022-12-29T06:15:38;10.70;99.90
17152;DHT22;8691;50.828;4.700;2022-12-29T06:18:05;10.80;99.90
17152;DHT22;8691;50.828;4.700;2022-12-29T06:20:32;10.80;99.90
17152;DHT22;8691;50.828;4.700;2022-12-29T06:22:59;11.00;99.90
17152;DHT22;8691;50.828;4.700;2022-12-29T06:25:26;11.00;99.90
17152;DHT22;8691;50.828;4.700;2022-12-29T06:27:53;11.10;99.90
17152;DHT22;8691;50.828;4.700;2022-12-29T06:30:20;11.00;99.90
17152;DHT22;8691;50.828;4.700;2022-12-29T06:32:47;11.00;99.90
17152;DHT22;8691;50.828;4.700;2022-12-29T06:35:14;11.00;99.90
17152;DHT22;8691;50.828;4.700;2022-12-29T06:37:41;11.00;99.90
17152;DHT22;8691;50.828;4.700;2022-12-29T06:40:08;11.00;99.90
17152;DHT22;8691;50.828;4.700;2022-12-29T06:42:36;11.10;99.90
17152;DHT22;8691;50.828;4.700;2022-12-29T06:45:03;11.10;99.90
17152;DHT22;8691;50.828;4.700;2022-12-29T06:47:30;11.10;99.90
17152;DHT22;8691;50.828;4.700;2022-12-29T06:49:57;11.00;99.90
17152;DHT22;8691;50.828;4.700;2022-12-29T06:52:23;11.00;99.90
17152;DHT22;8691;50.828;4.700;2022-12-29T06:54:50;11.00;99.90
17152;DHT22;8691;50.828;4.700;2022-12-29T06:57:18;10.80;99.90
17152;DHT22;8691;50.828;4.700;2022-12-29T06:59:45;10.80;99.90
17152;DHT22;8691;50.828;4.700;2022-12-29T07:02:12;10.70;99.90
17152;DHT22;8691;50.828;4.700;2022-12-29T07:04:39;10.70;99.90
17152;DHT22;8691;50.828;4.700;2022-12-29T07:07:07;10.90;99.90
17152;DHT22;8691;50.828;4.700;2022-12-29T07:09:34;10.80;99.90
17152;DHT22;8691;50.828;4.700;2022-12-29T07:12:01;10.80;99.90
17152;DHT22;8691;50.828;4.700;2022-12-29T07:14:28;10.90;99.90
17152;DHT22;8691;50.828;4.700;2022-12-29T07:16:55;10.90;99.90
17152;DHT22;8691;50.828;4.700;2022-12-29T07:19:21;10.90;99.90
17152;DHT22;8691;50.828;4.700;2022-12-29T07:21:49;10.90;99.90
17152;DHT22;8691;50.828;4.700;2022-12-29T07:24:16;11.00;99.90
17152;DHT22;8691;50.828;4.700;2022-12-29T07:26:43;11.00;99.90
17152;DHT22;8691;50.828;4.700;2022-12-29T07:29:10;10.90;99.90
17152;DHT22;8691;50.828;4.700;2022-12-29T07:31:36;10.60;99.90
17152;DHT22;8691;50.828;4.700;2022-12-29T07:34:03;10.40;99.90
17152;DHT22;8691;50.828;4.700;2022-12-29T07:36:30;10.40;99.90
17152;DHT22;8691;50.828;4.700;2022-12-29T07:38:57;10.40;99.90
17152;DHT22;8691;50.828;4.700;2022-12-29T07:41:24;10.60;99.90
17152;DHT22;8691;50.828;4.700;2022-12-29T07:43:51;10.60;99.90
17152;DHT22;8691;50.828;4.700;2022-12-29T07:46:18;10.40;99.90
17152;DHT22;8691;50.828;4.700;2022-12-29T07:48:46;10.30;99.90
17152;DHT22;8691;50.828;4.700;2022-12-29T07:51:13;10.30;99.90
17152;DHT22;8691;50.828;4.700;2022-12-29T07:53:40;10.40;99.90
17152;DHT22;8691;50.828;4.700;2022-12-29T07:56:07;10.70;99.90
17152;DHT22;8691;50.828;4.700;2022-12-29T07:58:35;10.90;99.90
17152;DHT22;8691;50.828;4.700;2022-12-29T08:01:02;10.90;99.90
17152;DHT22;8691;50.828;4.700;2022-12-29T08:03:29;10.80;99.90
17152;DHT22;8691;50.828;4.700;2022-12-29T08:05:56;10.70;99.90
17152;DHT22;8691;50.828;4.700;2022-12-29T08:08:22;10.50;99.90
17152;DHT22;8691;50.828;4.700;2022-12-29T08:10:49;10.60;99.90
17152;DHT22;8691;50.828;4.700;2022-12-29T08:13:16;10.50;99.90
17152;DHT22;8691;50.828;4.700;2022-12-29T08:15:43;10.60;99.90
17152;DHT22;8691;50.828;4.700;2022-12-29T08:18:10;10.50;99.90
17152;DHT22;8691;50.828;4.700;2022-12-29T08:20:37;10.70;99.90
17152;DHT22;8691;50.828;4.700;2022-12-29T08:23:04;10.70;99.90
17152;DHT22;8691;50.828;4.700;2022-12-29T08:25:31;10.80;99.90
17152;DHT22;8691;50.828;4.700;2022-12-29T08:27:58;10.80;99.90
17152;DHT22;8691;50.828;4.700;2022-12-29T08:30:26;10.90;99.90
17152;DHT22;8691;50.828;4.700;2022-12-29T08:32:53;10.80;99.90
17152;DHT22;8691;50.828;4.700;2022-12-29T08:35:20;10.80;99.90
17152;DHT22;8691;50.828;4.700;2022-12-29T08:37:47;10.70;99.90
17152;DHT22;8691;50.828;4.700;2022-12-29T08:40:14;10.80;99.90
17152;DHT22;8691;50.828;4.700;2022-12-29T08:42:41;10.70;99.90
17152;DHT22;8691;50.828;4.700;2022-12-29T08:45:09;10.80;99.90
17152;DHT22;8691;50.828;4.700;2022-12-29T08:47:35;10.80;99.90
17152;DHT22;8691;50.828;4.700;2022-12-29T08:50:02;10.90;99.90
17152;DHT22;8691;50.828;4.700;2022-12-29T08:52:29;10.90;99.90
17152;DHT22;8691;50.828;4.700;2022-12-29T08:54:56;10.80;99.90
17152;DHT22;8691;50.828;4.700;2022-12-29T08:57:23;10.90;99.90
17152;DHT22;8691;50.828;4.700;2022-12-29T08:59:50;10.90;99.90
17152;DHT22;8691;50.828;4.700;2022-12-29T09:02:16;11.00;99.90
17152;DHT22;8691;50.828;4.700;2022-12-29T09:04:43;10.80;99.90
17152;DHT22;8691;50.828;4.700;2022-12-29T09:07:10;10.80;99.90
17152;DHT22;8691;50.828;4.700;2022-12-29T09:09:37;10.90;99.90
17152;DHT22;8691;50.828;4.700;2022-12-29T09:12:04;10.80;99.90
17152;DHT22;8691;50.828;4.700;2022-12-29T09:14:30;10.90;99.90
17152;DHT22;8691;50.828;4.700;2022-12-29T09:16:57;10.80;99.90
17152;DHT22;8691;50.828;4.700;2022-12-29T09:19:42;11.00;99.90
17152;DHT22;8691;50.828;4.700;2022-12-29T09:22:09;11.20;99.90
17152;DHT22;8691;50.828;4.700;2022-12-29T09:24:37;11.10;99.90
17152;DHT22;8691;50.828;4.700;2022-12-29T09:27:05;11.00;99.90
17152;DHT22;8691;50.828;4.700;2022-12-29T09:29:32;11.00;99.90
17152;DHT22;8691;50.828;4.700;2022-12-29T09:32:00;11.30;99.90
17152;DHT22;8691;50.828;4.700;2022-12-29T09:34:27;11.20;99.90
17152;DHT22;8691;50.828;4.700;2022-12-29T09:36:54;11.50;99.90
17152;DHT22;8691;50.828;4.700;2022-12-29T09:39:20;11.60;99.90
17152;DHT22;8691;50.828;4.700;2022-12-29T09:41:59;11.40;99.90
17152;DHT22;8691;50.828;4.700;2022-12-29T09:47:09;11.60;99.90
17152;DHT22;8691;50.828;4.700;2022-12-29T09:49:45;11.70;99.90
17152;DHT22;8691;50.828;4.700;2022-12-29T09:52:25;11.70;99.90
17152;DHT22;8691;50.828;4.700;2022-12-29T09:55:08;11.80;99.90
17152;DHT22;8691;50.828;4.700;2022-12-29T09:57:40;11.80;99.90
17152;DHT22;8691;50.828;4.700;2022-12-29T10:00:16;11.90;99.90
17152;DHT22;8691;50.828;4.700;2022-12-29T10:02:46;12.20;99.90
17152;DHT22;8691;50.828;4.700;2022-12-29T10:08:13;12.10;99.90
17152;DHT22;8691;50.828;4.700;2022-12-29T10:10:53;11.90;99.90
17152;DHT22;8691;50.828;4.700;2022-12-29T10:13:20;11.80;99.90
17152;DHT22;8691;50.828;4.700;2022-12-29T10:15:43;11.50;99.90
17152;DHT22;8691;50.828;4.700;2022-12-29T10:18:23;11.90;99.90
17152;DHT22;8691;50.828;4.700;2022-12-29T10:21:05;12.00;99.90
17152;DHT22;8691;50.828;4.700;2022-12-29T10:23:29;12.00;99.90
17152;DHT22;8691;50.828;4.700;2022-12-29T10:25:56;11.90;99.90
17152;DHT22;8691;50.828;4.700;2022-12-29T10:30:50;11.90;99.90
17152;DHT22;8691;50.828;4.700;2022-12-29T10:33:21;12.00;99.90
17152;DHT22;8691;50.828;4.700;2022-12-29T10:35:43;12.10;99.90
17152;DHT22;8691;50.828;4.700;2022-12-29T10:38:15;12.20;99.90
17152;DHT22;8691;50.828;4.700;2022-12-29T10:40:50;12.60;99.90
17152;DHT22;8691;50.828;4.700;2022-12-29T10:43:34;12.70;99.90
17152;DHT22;8691;50.828;4.700;2022-12-29T10:45:58;12.70;99.90
17152;DHT22;8691;50.828;4.700;2022-12-29T10:48:31;12.60;99.90
17152;DHT22;8691;50.828;4.700;2022-12-29T10:50:58;12.50;99.90
17152;DHT22;8691;50.828;4.700;2022-12-29T10:53:26;12.40;99.90
17152;DHT22;8691;50.828;4.700;2022-12-29T10:55:51;12.40;99.90
17152;DHT22;8691;50.828;4.700;2022-12-29T10:58:18;12.40;99.90
17152;DHT22;8691;50.828;4.700;2022-12-29T11:00:51;12.30;99.90
17152;DHT22;8691;50.828;4.700;2022-12-29T11:06:25;12.20;99.90
17152;DHT22;8691;50.828;4.700;2022-12-29T11:08:55;12.00;99.90
17152;DHT22;8691;50.828;4.700;2022-12-29T11:11:28;11.90;99.90
17152;DHT22;8691;50.828;4.700;2022-12-29T11:13:57;11.90;99.90
17152;DHT22;8691;50.828;4.700;2022-12-29T11:16:30;11.90;99.90
17152;DHT22;8691;50.828;4.700;2022-12-29T11:18:56;12.00;99.90
17152;DHT22;8691;50.828;4.700;2022-12-29T11:24:02;11.90;99.90
17152;DHT22;8691;50.828;4.700;2022-12-29T11:26:29;11.90;99.90
17152;DHT22;8691;50.828;4.700;2022-12-29T11:31:41;11.90;99.90
17152;DHT22;8691;50.828;4.700;2022-12-29T11:34:07;11.90;99.90
17152;DHT22;8691;50.828;4.700;2022-12-29T11:36:35;11.80;99.90
17152;DHT22;8691;50.828;4.700;2022-12-29T11:39:02;11.80;99.90
17152;DHT22;8691;50.828;4.700;2022-12-29T11:41:29;11.80;99.90
17152;DHT22;8691;50.828;4.700;2022-12-29T11:43:56;11.80;99.90
17152;DHT22;8691;50.828;4.700;2022-12-29T11:46:32;11.70;99.90
17152;DHT22;8691;50.828;4.700;2022-12-29T11:48:49;11.70;99.90
17152;DHT22;8691;50.828;4.700;2022-12-29T11:51:37;11.70;99.90
17152;DHT22;8691;50.828;4.700;2022-12-29T11:53:52;11.70;99.90
17152;DHT22;8691;50.828;4.700;2022-12-29T11:56:20;11.70;99.90
17152;DHT22;8691;50.828;4.700;2022-12-29T11:58:44;11.60;99.90
17152;DHT22;8691;50.828;4.700;2022-12-29T12:03:42;11.60;99.90
17152;DHT22;8691;50.828;4.700;2022-12-29T12:06:07;11.60;99.90
17152;DHT22;8691;50.828;4.700;2022-12-29T12:08:51;11.60;99.90
17152;DHT22;8691;50.828;4.700;2022-12-29T12:11:16;11.60;99.90
17152;DHT22;8691;50.828;4.700;2022-12-29T12:14:02;11.50;99.90
17152;DHT22;8691;50.828;4.700;2022-12-29T12:19:34;11.50;99.90
17152;DHT22;8691;50.828;4.700;2022-12-29T12:24:45;11.40;99.90
17152;DHT22;8691;50.828;4.700;2022-12-29T12:27:19;11.40;99.90
17152;DHT22;8691;50.828;4.700;2022-12-29T12:35:07;11.50;99.90
17152;DHT22;8691;50.828;4.700;2022-12-29T12:43:18;11.60;99.90
17152;DHT22;8691;50.828;4.700;2022-12-29T12:48:45;11.40;99.90
17152;DHT22;8691;50.828;4.700;2022-12-29T12:56:24;11.40;99.90
17152;DHT22;8691;50.828;4.700;2022-12-29T12:58:59;11.40;99.90
17152;DHT22;8691;50.828;4.700;2022-12-29T13:01:43;11.40;99.90
17152;DHT22;8691;50.828;4.700;2022-12-29T13:07:30;11.50;99.90
17152;DHT22;8691;50.828;4.700;2022-12-29T13:15:15;11.60;99.90
17152;DHT22;8691;50.828;4.700;2022-12-29T13:20:20;11.60;99.90
17152;DHT22;8691;50.828;4.700;2022-12-29T13:23:02;11.50;99.90
17152;DHT22;8691;50.828;4.700;2022-12-29T13:28:20;11.50;99.90
17152;DHT22;8691;50.828;4.700;2022-12-29T13:31:09;11.60;99.90
17152;DHT22;8691;50.828;4.700;2022-12-29T13:33:19;11.70;99.90
17152;DHT22;8691;50.828;4.700;2022-12-29T13:35:56;11.50;99.90
17152;DHT22;8691;50.828;4.700;2022-12-29T13:38:37;11.40;99.90
17152;DHT22;8691;50.828;4.700;2022-12-29T13:41:04;11.30;99.90
17152;DHT22;8691;50.828;4.700;2022-12-29T13:43:31;11.20;99.90
17152;DHT22;8691;50.828;4.700;2022-12-29T13:46:06;11.00;99.90
17152;DHT22;8691;50.828;4.700;2022-12-29T13:48:37;10.90;99.90
17152;DHT22;8691;50.828;4.700;2022-12-29T13:51:06;10.80;99.90
17152;DHT22;8691;50.828;4.700;2022-12-29T13:53:58;10.70;99.90
17152;DHT22;8691;50.828;4.700;2022-12-29T13:56:33;10.80;99.90
17152;DHT22;8691;50.828;4.700;2022-12-29T13:59:00;10.70;99.90
17152;DHT22;8691;50.828;4.700;2022-12-29T14:01:28;10.70;99.90
17152;DHT22;8691;50.828;4.700;2022-12-29T14:03:55;10.60;99.90
17152;DHT22;8691;50.828;4.700;2022-12-29T14:06:22;10.60;99.90
17152;DHT22;8691;50.828;4.700;2022-12-29T14:08:48;10.50;99.90
17152;DHT22;8691;50.828;4.700;2022-12-29T14:11:16;10.30;99.90
17152;DHT22;8691;50.828;4.700;2022-12-29T14:13:45;10.20;99.90
17152;DHT22;8691;50.828;4.700;2022-12-29T14:16:21;10.20;99.90
17152;DHT22;8691;50.828;4.700;2022-12-29T14:18:42;10.00;99.90
17152;DHT22;8691;50.828;4.700;2022-12-29T14:21:18;10.00;99.90
17152;DHT22;8691;50.828;4.700;2022-12-29T14:23:46;9.90;99.90
17152;DHT22;8691;50.828;4.700;2022-12-29T14:26:14;9.90;99.90
17152;DHT22;8691;50.828;4.700;2022-12-29T14:28:42;9.80;99.90
17152;DHT22;8691;50.828;4.700;2022-12-29T14:34:14;9.80;99.90
17152;DHT22;8691;50.828;4.700;2022-12-29T14:36:33;9.80;99.90
17152;DHT22;8691;50.828;4.700;2022-12-29T14:38:53;9.90;99.90
17152;DHT22;8691;50.828;4.700;2022-12-29T14:41:24;10.00;99.90
17152;DHT22;8691;50.828;4.700;2022-12-29T14:44:03;10.20;99.90
17152;DHT22;8691;50.828;4.700;2022-12-29T14:49:20;10.20;99.90
17152;DHT22;8691;50.828;4.700;2022-12-29T14:51:46;10.30;99.90
17152;DHT22;8691;50.828;4.700;2022-12-29T14:56:59;10.30;99.90
17152;DHT22;8691;50.828;4.700;2022-12-29T14:59:25;10.20;99.90
17152;DHT22;8691;50.828;4.700;2022-12-29T15:01:53;10.10;99.90
17152;DHT22;8691;50.828;4.700;2022-12-29T15:04:20;10.10;99.90
17152;DHT22;8691;50.828;4.700;2022-12-29T15:06:46;10.20;99.90
17152;DHT22;8691;50.828;4.700;2022-12-29T15:09:31;10.20;99.90
17152;DHT22;8691;50.828;4.700;2022-12-29T15:12:06;10.10;99.90
17152;DHT22;8691;50.828;4.700;2022-12-29T15:14:38;10.00;99.90
17152;DHT22;8691;50.828;4.700;2022-12-29T15:17:10;10.00;99.90
17152;DHT22;8691;50.828;4.700;2022-12-29T15:19:36;9.90;99.90
17152;DHT22;8691;50.828;4.700;2022-12-29T15:22:03;9.80;99.90
17152;DHT22;8691;50.828;4.700;2022-12-29T15:24:29;9.90;99.90
17152;DHT22;8691;50.828;4.700;2022-12-29T15:26:56;9.80;99.90
17152;DHT22;8691;50.828;4.700;2022-12-29T15:29:39;9.80;99.90
17152;DHT22;8691;50.828;4.700;2022-12-29T15:32:24;9.80;99.90
17152;DHT22;8691;50.828;4.700;2022-12-29T15:34:54;9.80;99.90
17152;DHT22;8691;50.828;4.700;2022-12-29T15:37:32;9.70;99.90
17152;DHT22;8691;50.828;4.700;2022-12-29T15:39:59;9.90;99.90
17152;DHT22;8691;50.828;4.700;2022-12-29T15:42:48;9.90;99.90
17152;DHT22;8691;50.828;4.700;2022-12-29T15:45:11;9.70;99.90
17152;DHT22;8691;50.828;4.700;2022-12-29T15:47:39;9.10;99.90
17152;DHT22;8691;50.828;4.700;2022-12-29T15:50:07;9.10;99.90
17152;DHT22;8691;50.828;4.700;2022-12-29T15:52:33;9.00;99.90
17152;DHT22;8691;50.828;4.700;2022-12-29T15:54:59;8.90;99.90
17152;DHT22;8691;50.828;4.700;2022-12-29T15:57:27;8.80;99.90
17152;DHT22;8691;50.828;4.700;2022-12-29T15:59:53;8.80;99.90
17152;DHT22;8691;50.828;4.700;2022-12-29T16:02:23;8.80;99.90
17152;DHT22;8691;50.828;4.700;2022-12-29T16:04:47;8.90;99.90
17152;DHT22;8691;50.828;4.700;2022-12-29T16:09:57;8.70;99.90
17152;DHT22;8691;50.828;4.700;2022-12-29T16:12:30;8.60;99.90
17152;DHT22;8691;50.828;4.700;2022-12-29T16:15:03;8.60;99.90
17152;DHT22;8691;50.828;4.700;2022-12-29T16:17:31;8.50;99.90
17152;DHT22;8691;50.828;4.700;2022-12-29T16:19:59;8.40;99.90
17152;DHT22;8691;50.828;4.700;2022-12-29T16:22:32;8.30;99.90
17152;DHT22;8691;50.828;4.700;2022-12-29T16:24:56;8.30;99.90
17152;DHT22;8691;50.828;4.700;2022-12-29T16:27:24;8.20;99.90
17152;DHT22;8691;50.828;4.700;2022-12-29T16:29:49;8.10;99.90
17152;DHT22;8691;50.828;4.700;2022-12-29T16:32:30;8.00;99.90
17152;DHT22;8691;50.828;4.700;2022-12-29T16:34:47;8.00;99.90
17152;DHT22;8691;50.828;4.700;2022-12-29T16:37:30;7.90;99.90
17152;DHT22;8691;50.828;4.700;2022-12-29T16:40:13;7.80;99.90
17152;DHT22;8691;50.828;4.700;2022-12-29T16:42:33;7.80;99.90
17152;DHT22;8691;50.828;4.700;2022-12-29T16:47:29;7.80;99.90
17152;DHT22;8691;50.828;4.700;2022-12-29T16:49:56;7.70;99.90
17152;DHT22;8691;50.828;4.700;2022-12-29T16:52:29;7.80;99.90
17152;DHT22;8691;50.828;4.700;2022-12-29T16:54:56;7.80;99.90
17152;DHT22;8691;50.828;4.700;2022-12-29T16:57:24;7.80;99.90
17152;DHT22;8691;50.828;4.700;2022-12-29T16:59:47;7.90;99.90
17152;DHT22;8691;50.828;4.700;2022-12-29T17:02:14;7.90;99.90
17152;DHT22;8691;50.828;4.700;2022-12-29T17:04:41;7.90;99.90
17152;DHT22;8691;50.828;4.700;2022-12-29T17:07:21;7.90;99.90
17152;DHT22;8691;50.828;4.700;2022-12-29T17:09:47;7.90;99.90
17152;DHT22;8691;50.828;4.700;2022-12-29T17:12:25;7.90;99.90
17152;DHT22;8691;50.828;4.700;2022-12-29T17:14:52;7.90;99.90
17152;DHT22;8691;50.828;4.700;2022-12-29T17:17:26;7.90;99.90
17152;DHT22;8691;50.828;4.700;2022-12-29T17:19:49;7.90;99.90
17152;DHT22;8691;50.828;4.700;2022-12-29T17:22:16;7.90;99.90
17152;DHT22;8691;50.828;4.700;2022-12-29T17:24:42;7.80;99.90
17152;DHT22;8691;50.828;4.700;2022-12-29T17:27:12;7.80;99.90
17152;DHT22;8691;50.828;4.700;2022-12-29T17:29:38;7.90;99.90
17152;DHT22;8691;50.828;4.700;2022-12-29T17:32:05;8.00;99.90
17152;DHT22;8691;50.828;4.700;2022-12-29T17:34:32;8.00;99.90
17152;DHT22;8691;50.828;4.700;2022-12-29T17:36:59;8.10;99.90
17152;DHT22;8691;50.828;4.700;2022-12-29T17:39:26;8.20;99.90
17152;DHT22;8691;50.828;4.700;2022-12-29T17:41:54;8.20;99.90
17152;DHT22;8691;50.828;4.700;2022-12-29T17:44:27;8.20;99.90
17152;DHT22;8691;50.828;4.700;2022-12-29T17:46:48;8.20;99.90